sensor_id;sensor_type;location;lat;lon;timestamp;P1;durP1;ratioP1;P2;durP2;ratioP2
13461;SDS011;6803;45.264;5.468;2023-05-07T00:01:26;2.77;;;1.23;;
13461;SDS011;6803;45.264;5.468;2023-05-07T00:03:57;2.27;;;0.87;;
13461;SDS011;6803;45.264;5.468;2023-05-07T00:06:28;2.97;;;0.97;;
13461;SDS011;6803;45.264;5.468;2023-05-07T00:08:59;2.00;;;0.83;;
13461;SDS011;6803;45.264;5.468;2023-05-07T00:11:31;2.73;;;0.77;;
13461;SDS011;6803;45.264;5.468;2023-05-07T00:14:04;0.97;;;0.83;;
13461;SDS011;6803;45.264;5.468;2023-05-07T00:16:34;1.70;;;0.90;;
13461;SDS011;6803;45.264;5.468;2023-05-07T00:19:05;1.43;;;1.00;;
13461;SDS011;6803;45.264;5.468;2023-05-07T00:21:36;1.13;;;0.80;;
13461;SDS011;6803;45.264;5.468;2023-05-07T00:24:07;1.20;;;1.10;;
13461;SDS011;6803;45.264;5.468;2023-05-07T00:26:37;1.47;;;0.80;;
13461;SDS011;6803;45.264;5.468;2023-05-07T00:29:08;0.80;;;0.80;;
13461;SDS011;6803;45.264;5.468;2023-05-07T00:31:40;2.77;;;0.90;;
13461;SDS011;6803;45.264;5.468;2023-05-07T00:34:11;3.17;;;1.10;;
13461;SDS011;6803;45.264;5.468;2023-05-07T00:36:41;1.07;;;0.97;;
13461;SDS011;6803;45.264;5.468;2023-05-07T00:39:12;1.37;;;0.88;;
13461;SDS011;6803;45.264;5.468;2023-05-07T00:41:43;2.17;;;1.00;;
13461;SDS011;6803;45.264;5.468;2023-05-07T00:44:14;4.53;;;1.30;;
13461;SDS011;6803;45.264;5.468;2023-05-07T00:46:46;1.23;;;1.00;;
13461;SDS011;6803;45.264;5.468;2023-05-07T00:49:17;0.90;;;0.83;;
13461;SDS011;6803;45.264;5.468;2023-05-07T00:51:49;1.10;;;1.00;;
13461;SDS011;6803;45.264;5.468;2023-05-07T00:54:20;1.20;;;0.73;;
13461;SDS011;6803;45.264;5.468;2023-05-07T00:56:52;0.80;;;0.80;;
13461;SDS011;6803;45.264;5.468;2023-05-07T00:59:23;3.43;;;1.00;;
13461;SDS011;6803;45.264;5.468;2023-05-07T01:01:54;0.90;;;0.87;;
13461;SDS011;6803;45.264;5.468;2023-05-07T01:04:25;3.13;;;1.17;;
13461;SDS011;6803;45.264;5.468;2023-05-07T01:06:57;4.30;;;1.20;;
13461;SDS011;6803;45.264;5.468;2023-05-07T01:09:30;2.27;;;0.90;;
13461;SDS011;6803;45.264;5.468;2023-05-07T01:12:03;3.20;;;0.87;;
13461;SDS011;6803;45.264;5.468;2023-05-07T01:14:35;4.30;;;1.13;;
13461;SDS011;6803;45.264;5.468;2023-05-07T01:17:06;1.70;;;1.20;;
13461;SDS011;6803;45.264;5.468;2023-05-07T01:19:37;2.43;;;1.20;;
13461;SDS011;6803;45.264;5.468;2023-05-07T01:22:08;1.43;;;1.10;;
13461;SDS011;6803;45.264;5.468;2023-05-07T01:24:40;4.07;;;1.13;;
13461;SDS011;6803;45.264;5.468;2023-05-07T01:27:11;2.60;;;1.20;;
13461;SDS011;6803;45.264;5.468;2023-05-07T01:29:42;2.87;;;0.93;;
13461;SDS011;6803;45.264;5.468;2023-05-07T01:32:13;2.30;;;1.10;;
13461;SDS011;6803;45.264;5.468;2023-05-07T01:34:45;1.93;;;1.10;;
13461;SDS011;6803;45.264;5.468;2023-05-07T01:37:17;3.00;;;1.50;;
13461;SDS011;6803;45.264;5.468;2023-05-07T01:39:48;1.30;;;1.20;;
13461;SDS011;6803;45.264;5.468;2023-05-07T01:42:19;1.43;;;0.80;;
13461;SDS011;6803;45.264;5.468;2023-05-07T01:44:50;3.13;;;1.70;;
13461;SDS011;6803;45.264;5.468;2023-05-07T01:47:21;2.00;;;1.57;;
13461;SDS011;6803;45.264;5.468;2023-05-07T01:49:52;1.63;;;1.30;;
13461;SDS011;6803;45.264;5.468;2023-05-07T01:52:23;1.60;;;1.43;;
13461;SDS011;6803;45.264;5.468;2023-05-07T01:54:54;2.43;;;1.33;;
13461;SDS011;6803;45.264;5.468;2023-05-07T01:57:24;3.80;;;1.57;;
13461;SDS011;6803;45.264;5.468;2023-05-07T01:59:55;1.70;;;1.20;;
13461;SDS011;6803;45.264;5.468;2023-05-07T02:02:26;4.40;;;1.17;;
13461;SDS011;6803;45.264;5.468;2023-05-07T02:04:57;6.80;;;1.20;;
13461;SDS011;6803;45.264;5.468;2023-05-07T02:07:28;1.67;;;1.20;;
13461;SDS011;6803;45.264;5.468;2023-05-07T02:09:59;1.57;;;1.43;;
13461;SDS011;6803;45.264;5.468;2023-05-07T02:12:30;2.83;;;1.30;;
13461;SDS011;6803;45.264;5.468;2023-05-07T02:15:01;1.97;;;1.00;;
13461;SDS011;6803;45.264;5.468;2023-05-07T02:17:33;2.77;;;1.27;;
13461;SDS011;6803;45.264;5.468;2023-05-07T02:20:06;1.57;;;1.07;;
13461;SDS011;6803;45.264;5.468;2023-05-07T02:22:39;3.83;;;1.22;;
13461;SDS011;6803;45.264;5.468;2023-05-07T02:25:10;1.97;;;1.77;;
13461;SDS011;6803;45.264;5.468;2023-05-07T02:27:41;3.83;;;1.47;;
13461;SDS011;6803;45.264;5.468;2023-05-07T02:30:12;2.33;;;1.37;;
13461;SDS011;6803;45.264;5.468;2023-05-07T02:32:43;3.47;;;1.30;;
13461;SDS011;6803;45.264;5.468;2023-05-07T02:35:14;1.83;;;1.57;;
13461;SDS011;6803;45.264;5.468;2023-05-07T02:37:45;2.00;;;1.33;;
13461;SDS011;6803;45.264;5.468;2023-05-07T02:40:15;1.60;;;1.00;;
13461;SDS011;6803;45.264;5.468;2023-05-07T02:42:46;4.03;;;1.43;;
13461;SDS011;6803;45.264;5.468;2023-05-07T02:45:17;2.10;;;1.57;;
13461;SDS011;6803;45.264;5.468;2023-05-07T02:47:48;1.70;;;1.17;;
13461;SDS011;6803;45.264;5.468;2023-05-07T02:50:19;1.40;;;1.10;;
13461;SDS011;6803;45.264;5.468;2023-05-07T02:52:49;1.93;;;1.17;;
13461;SDS011;6803;45.264;5.468;2023-05-07T02:55:20;3.37;;;1.17;;
13461;SDS011;6803;45.264;5.468;2023-05-07T02:57:50;1.80;;;1.10;;
13461;SDS011;6803;45.264;5.468;2023-05-07T03:00:22;1.43;;;1.17;;
13461;SDS011;6803;45.264;5.468;2023-05-07T03:02:54;3.17;;;1.40;;
13461;SDS011;6803;45.264;5.468;2023-05-07T03:05:25;1.27;;;1.17;;
13461;SDS011;6803;45.264;5.468;2023-05-07T03:07:55;3.03;;;1.30;;
13461;SDS011;6803;45.264;5.468;2023-05-07T03:10:26;1.53;;;1.40;;
13461;SDS011;6803;45.264;5.468;2023-05-07T03:12:58;3.83;;;2.03;;
13461;SDS011;6803;45.264;5.468;2023-05-07T03:15:30;1.80;;;1.43;;
13461;SDS011;6803;45.264;5.468;2023-05-07T03:18:01;2.03;;;1.50;;
13461;SDS011;6803;45.264;5.468;2023-05-07T03:20:32;3.30;;;1.50;;
13461;SDS011;6803;45.264;5.468;2023-05-07T03:23:04;2.65;;;1.60;;
13461;SDS011;6803;45.264;5.468;2023-05-07T03:25:35;2.40;;;1.43;;
13461;SDS011;6803;45.264;5.468;2023-05-07T03:28:05;2.90;;;1.87;;
13461;SDS011;6803;45.264;5.468;2023-05-07T03:30:36;3.20;;;1.63;;
13461;SDS011;6803;45.264;5.468;2023-05-07T03:33:07;2.97;;;1.50;;
13461;SDS011;6803;45.264;5.468;2023-05-07T03:35:38;3.97;;;1.63;;
13461;SDS011;6803;45.264;5.468;2023-05-07T03:38:09;2.00;;;1.20;;
13461;SDS011;6803;45.264;5.468;2023-05-07T03:40:40;2.30;;;1.30;;
13461;SDS011;6803;45.264;5.468;2023-05-07T03:43:11;3.20;;;1.20;;
13461;SDS011;6803;45.264;5.468;2023-05-07T03:45:41;4.57;;;1.20;;
13461;SDS011;6803;45.264;5.468;2023-05-07T03:48:12;1.80;;;1.20;;
13461;SDS011;6803;45.264;5.468;2023-05-07T03:50:43;1.90;;;1.03;;
13461;SDS011;6803;45.264;5.468;2023-05-07T03:53:14;3.00;;;1.10;;
13461;SDS011;6803;45.264;5.468;2023-05-07T03:55:44;2.17;;;1.00;;
13461;SDS011;6803;45.264;5.468;2023-05-07T03:58:15;2.17;;;1.30;;
13461;SDS011;6803;45.264;5.468;2023-05-07T04:00:46;3.53;;;1.20;;
13461;SDS011;6803;45.264;5.468;2023-05-07T04:03:17;1.00;;;1.00;;
13461;SDS011;6803;45.264;5.468;2023-05-07T04:05:48;2.63;;;1.40;;
13461;SDS011;6803;45.264;5.468;2023-05-07T04:08:19;2.37;;;1.27;;
13461;SDS011;6803;45.264;5.468;2023-05-07T04:10:54;2.13;;;1.30;;
13461;SDS011;6803;45.264;5.468;2023-05-07T04:13:25;2.40;;;1.33;;
13461;SDS011;6803;45.264;5.468;2023-05-07T04:15:56;3.63;;;1.80;;
13461;SDS011;6803;45.264;5.468;2023-05-07T04:18:27;2.07;;;1.30;;
13461;SDS011;6803;45.264;5.468;2023-05-07T04:20:57;1.20;;;1.10;;
13461;SDS011;6803;45.264;5.468;2023-05-07T04:23:28;2.43;;;1.60;;
13461;SDS011;6803;45.264;5.468;2023-05-07T04:25:59;2.13;;;1.73;;
13461;SDS011;6803;45.264;5.468;2023-05-07T04:28:29;3.40;;;1.80;;
13461;SDS011;6803;45.264;5.468;2023-05-07T04:31:00;4.47;;;1.50;;
13461;SDS011;6803;45.264;5.468;2023-05-07T04:33:31;1.90;;;1.70;;
13461;SDS011;6803;45.264;5.468;2023-05-07T04:36:03;1.73;;;1.53;;
13461;SDS011;6803;45.264;5.468;2023-05-07T04:38:34;2.70;;;1.50;;
13461;SDS011;6803;45.264;5.468;2023-05-07T04:41:05;1.80;;;1.50;;
13461;SDS011;6803;45.264;5.468;2023-05-07T04:43:38;4.57;;;1.37;;
13461;SDS011;6803;45.264;5.468;2023-05-07T04:46:09;1.73;;;1.40;;
13461;SDS011;6803;45.264;5.468;2023-05-07T04:48:40;2.27;;;1.83;;
13461;SDS011;6803;45.264;5.468;2023-05-07T04:51:11;2.80;;;1.70;;
13461;SDS011;6803;45.264;5.468;2023-05-07T04:53:41;1.73;;;1.50;;
13461;SDS011;6803;45.264;5.468;2023-05-07T04:56:12;2.50;;;1.60;;
13461;SDS011;6803;45.264;5.468;2023-05-07T04:58:42;2.43;;;1.40;;
13461;SDS011;6803;45.264;5.468;2023-05-07T05:01:13;1.73;;;1.57;;
13461;SDS011;6803;45.264;5.468;2023-05-07T05:03:44;3.43;;;1.73;;
13461;SDS011;6803;45.264;5.468;2023-05-07T05:06:15;4.37;;;1.80;;
13461;SDS011;6803;45.264;5.468;2023-05-07T05:08:46;2.93;;;1.47;;
13461;SDS011;6803;45.264;5.468;2023-05-07T05:11:16;3.57;;;1.53;;
13461;SDS011;6803;45.264;5.468;2023-05-07T05:13:47;1.70;;;1.53;;
13461;SDS011;6803;45.264;5.468;2023-05-07T05:16:18;2.77;;;1.70;;
13461;SDS011;6803;45.264;5.468;2023-05-07T05:18:48;2.93;;;1.53;;
13461;SDS011;6803;45.264;5.468;2023-05-07T05:21:19;1.40;;;1.30;;
13461;SDS011;6803;45.264;5.468;2023-05-07T05:23:50;2.07;;;1.50;;
13461;SDS011;6803;45.264;5.468;2023-05-07T05:26:21;3.53;;;1.50;;
13461;SDS011;6803;45.264;5.468;2023-05-07T05:28:51;1.30;;;1.20;;
13461;SDS011;6803;45.264;5.468;2023-05-07T05:31:23;3.17;;;1.50;;
13461;SDS011;6803;45.264;5.468;2023-05-07T05:33:54;1.73;;;1.43;;
13461;SDS011;6803;45.264;5.468;2023-05-07T05:36:24;2.20;;;1.50;;
13461;SDS011;6803;45.264;5.468;2023-05-07T05:38:55;1.40;;;1.30;;
13461;SDS011;6803;45.264;5.468;2023-05-07T05:41:26;2.93;;;1.53;;
13461;SDS011;6803;45.264;5.468;2023-05-07T05:43:57;1.67;;;1.47;;
13461;SDS011;6803;45.264;5.468;2023-05-07T05:46:28;3.40;;;1.57;;
13461;SDS011;6803;45.264;5.468;2023-05-07T05:48:58;3.87;;;1.37;;
13461;SDS011;6803;45.264;5.468;2023-05-07T05:51:29;4.33;;;1.47;;
13461;SDS011;6803;45.264;5.468;2023-05-07T05:54:00;2.13;;;1.50;;
13461;SDS011;6803;45.264;5.468;2023-05-07T05:56:30;2.67;;;1.40;;
13461;SDS011;6803;45.264;5.468;2023-05-07T05:59:01;2.17;;;1.57;;
13461;SDS011;6803;45.264;5.468;2023-05-07T06:01:32;1.80;;;1.40;;
13461;SDS011;6803;45.264;5.468;2023-05-07T06:04:03;1.37;;;1.27;;
13461;SDS011;6803;45.264;5.468;2023-05-07T06:06:34;1.80;;;1.70;;
13461;SDS011;6803;45.264;5.468;2023-05-07T06:09:04;1.87;;;1.43;;
13461;SDS011;6803;45.264;5.468;2023-05-07T06:11:35;4.03;;;1.57;;
13461;SDS011;6803;45.264;5.468;2023-05-07T06:14:06;2.90;;;1.70;;
13461;SDS011;6803;45.264;5.468;2023-05-07T06:16:36;2.33;;;1.80;;
13461;SDS011;6803;45.264;5.468;2023-05-07T06:19:07;5.57;;;1.40;;
13461;SDS011;6803;45.264;5.468;2023-05-07T06:21:39;1.67;;;1.43;;
13461;SDS011;6803;45.264;5.468;2023-05-07T06:24:10;2.17;;;1.40;;
13461;SDS011;6803;45.264;5.468;2023-05-07T06:26:40;2.13;;;1.33;;
13461;SDS011;6803;45.264;5.468;2023-05-07T06:29:11;3.77;;;1.30;;
13461;SDS011;6803;45.264;5.468;2023-05-07T06:31:43;1.60;;;1.50;;
13461;SDS011;6803;45.264;5.468;2023-05-07T06:34:14;5.63;;;1.50;;
13461;SDS011;6803;45.264;5.468;2023-05-07T06:36:45;2.53;;;1.47;;
13461;SDS011;6803;45.264;5.468;2023-05-07T06:39:15;3.07;;;1.80;;
13461;SDS011;6803;45.264;5.468;2023-05-07T06:41:46;2.13;;;1.80;;
13461;SDS011;6803;45.264;5.468;2023-05-07T06:44:17;2.47;;;1.67;;
13461;SDS011;6803;45.264;5.468;2023-05-07T06:46:47;4.00;;;1.67;;
13461;SDS011;6803;45.264;5.468;2023-05-07T06:49:18;2.07;;;1.87;;
13461;SDS011;6803;45.264;5.468;2023-05-07T06:51:49;2.13;;;1.77;;
13461;SDS011;6803;45.264;5.468;2023-05-07T06:54:20;3.00;;;1.60;;
13461;SDS011;6803;45.264;5.468;2023-05-07T06:56:51;2.13;;;1.70;;
13461;SDS011;6803;45.264;5.468;2023-05-07T06:59:21;1.60;;;1.43;;
13461;SDS011;6803;45.264;5.468;2023-05-07T07:01:53;1.50;;;1.40;;
13461;SDS011;6803;45.264;5.468;2023-05-07T07:04:24;1.60;;;1.47;;
13461;SDS011;6803;45.264;5.468;2023-05-07T07:06:56;1.90;;;1.70;;
13461;SDS011;6803;45.264;5.468;2023-05-07T07:09:26;5.33;;;1.93;;
13461;SDS011;6803;45.264;5.468;2023-05-07T07:11:57;5.17;;;1.70;;
13461;SDS011;6803;45.264;5.468;2023-05-07T07:14:28;4.90;;;1.57;;
13461;SDS011;6803;45.264;5.468;2023-05-07T07:16:58;2.73;;;1.73;;
13461;SDS011;6803;45.264;5.468;2023-05-07T07:19:29;2.73;;;1.43;;
13461;SDS011;6803;45.264;5.468;2023-05-07T07:22:00;1.63;;;1.30;;
13461;SDS011;6803;45.264;5.468;2023-05-07T07:24:31;1.93;;;1.40;;
13461;SDS011;6803;45.264;5.468;2023-05-07T07:27:01;1.50;;;1.40;;
13461;SDS011;6803;45.264;5.468;2023-05-07T07:29:33;3.90;;;1.80;;
13461;SDS011;6803;45.264;5.468;2023-05-07T07:32:05;2.87;;;1.40;;
13461;SDS011;6803;45.264;5.468;2023-05-07T07:34:35;1.80;;;1.40;;
13461;SDS011;6803;45.264;5.468;2023-05-07T07:37:06;2.50;;;1.37;;
13461;SDS011;6803;45.264;5.468;2023-05-07T07:39:37;5.13;;;1.70;;
13461;SDS011;6803;45.264;5.468;2023-05-07T07:42:07;2.20;;;1.50;;
13461;SDS011;6803;45.264;5.468;2023-05-07T07:44:38;4.60;;;2.00;;
13461;SDS011;6803;45.264;5.468;2023-05-07T07:47:09;1.77;;;1.50;;
13461;SDS011;6803;45.264;5.468;2023-05-07T07:49:40;2.50;;;1.90;;
13461;SDS011;6803;45.264;5.468;2023-05-07T07:52:10;2.07;;;1.40;;
13461;SDS011;6803;45.264;5.468;2023-05-07T07:54:41;1.70;;;1.33;;
13461;SDS011;6803;45.264;5.468;2023-05-07T07:57:12;2.10;;;1.70;;
13461;SDS011;6803;45.264;5.468;2023-05-07T07:59:42;4.13;;;1.70;;
13461;SDS011;6803;45.264;5.468;2023-05-07T08:02:13;3.40;;;1.70;;
13461;SDS011;6803;45.264;5.468;2023-05-07T08:04:44;2.33;;;1.67;;
13461;SDS011;6803;45.264;5.468;2023-05-07T08:07:14;4.00;;;1.80;;
13461;SDS011;6803;45.264;5.468;2023-05-07T08:09:46;1.60;;;1.30;;
13461;SDS011;6803;45.264;5.468;2023-05-07T08:12:17;2.30;;;1.70;;
13461;SDS011;6803;45.264;5.468;2023-05-07T08:14:49;1.50;;;1.40;;
13461;SDS011;6803;45.264;5.468;2023-05-07T08:17:19;2.33;;;1.70;;
13461;SDS011;6803;45.264;5.468;2023-05-07T08:19:50;3.30;;;1.60;;
13461;SDS011;6803;45.264;5.468;2023-05-07T08:22:21;2.37;;;1.70;;
13461;SDS011;6803;45.264;5.468;2023-05-07T08:24:52;1.63;;;1.43;;
13461;SDS011;6803;45.264;5.468;2023-05-07T08:27:22;3.27;;;1.60;;
13461;SDS011;6803;45.264;5.468;2023-05-07T08:29:53;3.73;;;1.83;;
13461;SDS011;6803;45.264;5.468;2023-05-07T08:32:24;3.77;;;1.50;;
13461;SDS011;6803;45.264;5.468;2023-05-07T08:34:55;1.70;;;1.43;;
13461;SDS011;6803;45.264;5.468;2023-05-07T08:37:26;3.47;;;1.53;;
13461;SDS011;6803;45.264;5.468;2023-05-07T08:39:56;2.40;;;1.73;;
13461;SDS011;6803;45.264;5.468;2023-05-07T08:42:28;1.23;;;1.13;;
13461;SDS011;6803;45.264;5.468;2023-05-07T08:45:00;7.17;;;1.70;;
13461;SDS011;6803;45.264;5.468;2023-05-07T08:47:41;2.50;;;1.70;;
13461;SDS011;6803;45.264;5.468;2023-05-07T08:50:13;9.97;;;2.10;;
13461;SDS011;6803;45.264;5.468;2023-05-07T08:52:44;3.97;;;2.57;;
13461;SDS011;6803;45.264;5.468;2023-05-07T08:55:16;3.10;;;2.40;;
13461;SDS011;6803;45.264;5.468;2023-05-07T08:57:47;4.67;;;2.37;;
13461;SDS011;6803;45.264;5.468;2023-05-07T09:00:20;7.67;;;3.17;;
13461;SDS011;6803;45.264;5.468;2023-05-07T09:02:52;8.13;;;2.80;;
13461;SDS011;6803;45.264;5.468;2023-05-07T09:05:23;3.93;;;2.30;;
13461;SDS011;6803;45.264;5.468;2023-05-07T09:07:53;2.23;;;1.93;;
13461;SDS011;6803;45.264;5.468;2023-05-07T09:10:25;4.10;;;2.17;;
13461;SDS011;6803;45.264;5.468;2023-05-07T09:12:55;5.25;;;1.87;;
13461;SDS011;6803;45.264;5.468;2023-05-07T09:15:27;2.97;;;1.70;;
13461;SDS011;6803;45.264;5.468;2023-05-07T09:18:00;4.10;;;1.87;;
13461;SDS011;6803;45.264;5.468;2023-05-07T09:20:31;2.07;;;1.73;;
13461;SDS011;6803;45.264;5.468;2023-05-07T09:23:01;3.30;;;2.00;;
13461;SDS011;6803;45.264;5.468;2023-05-07T09:25:32;3.27;;;2.27;;
13461;SDS011;6803;45.264;5.468;2023-05-07T09:28:04;2.47;;;1.80;;
13461;SDS011;6803;45.264;5.468;2023-05-07T09:30:37;2.63;;;1.83;;
13461;SDS011;6803;45.264;5.468;2023-05-07T09:33:07;2.50;;;1.77;;
13461;SDS011;6803;45.264;5.468;2023-05-07T09:35:38;2.97;;;2.00;;
13461;SDS011;6803;45.264;5.468;2023-05-07T09:38:09;2.23;;;2.03;;
13461;SDS011;6803;45.264;5.468;2023-05-07T09:40:41;2.90;;;2.07;;
13461;SDS011;6803;45.264;5.468;2023-05-07T09:43:12;3.30;;;2.10;;
13461;SDS011;6803;45.264;5.468;2023-05-07T09:45:43;3.13;;;2.13;;
13461;SDS011;6803;45.264;5.468;2023-05-07T09:48:17;2.67;;;1.80;;
13461;SDS011;6803;45.264;5.468;2023-05-07T09:50:49;2.53;;;1.90;;
13461;SDS011;6803;45.264;5.468;2023-05-07T09:53:23;3.70;;;2.20;;
13461;SDS011;6803;45.264;5.468;2023-05-07T09:55:54;2.30;;;2.10;;
13461;SDS011;6803;45.264;5.468;2023-05-07T09:58:26;2.20;;;1.90;;
13461;SDS011;6803;45.264;5.468;2023-05-07T10:00:58;2.80;;;2.20;;
13461;SDS011;6803;45.264;5.468;2023-05-07T10:03:30;3.63;;;2.37;;
13461;SDS011;6803;45.264;5.468;2023-05-07T10:06:03;2.63;;;2.20;;
13461;SDS011;6803;45.264;5.468;2023-05-07T10:08:34;2.53;;;2.30;;
13461;SDS011;6803;45.264;5.468;2023-05-07T10:11:06;4.90;;;2.70;;
13461;SDS011;6803;45.264;5.468;2023-05-07T10:13:38;4.83;;;2.40;;
13461;SDS011;6803;45.264;5.468;2023-05-07T10:16:09;3.77;;;3.40;;
13461;SDS011;6803;45.264;5.468;2023-05-07T10:18:40;3.80;;;2.60;;
13461;SDS011;6803;45.264;5.468;2023-05-07T10:21:14;4.87;;;2.90;;
13461;SDS011;6803;45.264;5.468;2023-05-07T10:23:47;5.30;;;2.67;;
13461;SDS011;6803;45.264;5.468;2023-05-07T10:26:19;4.77;;;3.10;;
13461;SDS011;6803;45.264;5.468;2023-05-07T10:28:53;3.63;;;2.53;;
13461;SDS011;6803;45.264;5.468;2023-05-07T10:31:33;3.70;;;2.40;;
13461;SDS011;6803;45.264;5.468;2023-05-07T10:34:11;4.37;;;2.57;;
13461;SDS011;6803;45.264;5.468;2023-05-07T10:36:44;3.40;;;3.03;;
13461;SDS011;6803;45.264;5.468;2023-05-07T10:39:15;4.33;;;3.13;;
13461;SDS011;6803;45.264;5.468;2023-05-07T10:41:46;3.87;;;2.60;;
13461;SDS011;6803;45.264;5.468;2023-05-07T10:44:27;3.23;;;2.40;;
13461;SDS011;6803;45.264;5.468;2023-05-07T10:47:04;3.57;;;2.70;;
13461;SDS011;6803;45.264;5.468;2023-05-07T10:49:38;4.97;;;3.00;;
13461;SDS011;6803;45.264;5.468;2023-05-07T10:52:40;3.23;;;2.90;;
13461;SDS011;6803;45.264;5.468;2023-05-07T10:55:21;6.30;;;3.00;;
13461;SDS011;6803;45.264;5.468;2023-05-07T10:57:53;5.43;;;3.03;;
13461;SDS011;6803;45.264;5.468;2023-05-07T11:00:42;2.60;;;2.37;;
13461;SDS011;6803;45.264;5.468;2023-05-07T11:03:13;4.13;;;3.30;;
13461;SDS011;6803;45.264;5.468;2023-05-07T11:05:44;3.53;;;2.80;;
13461;SDS011;6803;45.264;5.468;2023-05-07T11:08:15;3.60;;;2.90;;
13461;SDS011;6803;45.264;5.468;2023-05-07T11:10:49;3.40;;;3.10;;
13461;SDS011;6803;45.264;5.468;2023-05-07T11:16:20;3.13;;;2.83;;
13461;SDS011;6803;45.264;5.468;2023-05-07T11:18:53;4.07;;;3.10;;
13461;SDS011;6803;45.264;5.468;2023-05-07T11:21:34;5.50;;;3.37;;
13461;SDS011;6803;45.264;5.468;2023-05-07T11:24:06;4.27;;;2.87;;
13461;SDS011;6803;45.264;5.468;2023-05-07T11:26:42;3.37;;;2.77;;
13461;SDS011;6803;45.264;5.468;2023-05-07T11:29:15;3.20;;;2.60;;
13461;SDS011;6803;45.264;5.468;2023-05-07T11:31:49;3.30;;;2.70;;
13461;SDS011;6803;45.264;5.468;2023-05-07T11:34:24;3.17;;;2.70;;
13461;SDS011;6803;45.264;5.468;2023-05-07T11:36:55;3.53;;;2.57;;
13461;SDS011;6803;45.264;5.468;2023-05-07T11:39:28;2.50;;;2.30;;
13461;SDS011;6803;45.264;5.468;2023-05-07T11:42:00;3.10;;;2.80;;
13461;SDS011;6803;45.264;5.468;2023-05-07T11:44:43;5.87;;;3.20;;
13461;SDS011;6803;45.264;5.468;2023-05-07T11:47:19;4.97;;;3.50;;
13461;SDS011;6803;45.264;5.468;2023-05-07T11:49:51;4.13;;;2.87;;
13461;SDS011;6803;45.264;5.468;2023-05-07T11:52:23;4.13;;;2.70;;
13461;SDS011;6803;45.264;5.468;2023-05-07T11:54:55;3.70;;;3.03;;
13461;SDS011;6803;45.264;5.468;2023-05-07T11:57:27;3.30;;;2.90;;
13461;SDS011;6803;45.264;5.468;2023-05-07T11:59:58;3.83;;;3.40;;
13461;SDS011;6803;45.264;5.468;2023-05-07T12:02:31;3.47;;;2.77;;
13461;SDS011;6803;45.264;5.468;2023-05-07T12:05:03;3.20;;;2.50;;
13461;SDS011;6803;45.264;5.468;2023-05-07T12:07:34;2.63;;;2.20;;
13461;SDS011;6803;45.264;5.468;2023-05-07T12:10:06;3.87;;;2.43;;
13461;SDS011;6803;45.264;5.468;2023-05-07T12:12:40;2.73;;;2.47;;
13461;SDS011;6803;45.264;5.468;2023-05-07T12:15:14;4.17;;;2.53;;
13461;SDS011;6803;45.264;5.468;2023-05-07T12:17:46;2.67;;;1.90;;
13461;SDS011;6803;45.264;5.468;2023-05-07T12:20:18;3.20;;;1.97;;
13461;SDS011;6803;45.264;5.468;2023-05-07T12:22:49;2.07;;;1.60;;
13461;SDS011;6803;45.264;5.468;2023-05-07T12:25:20;2.67;;;2.00;;
13461;SDS011;6803;45.264;5.468;2023-05-07T12:27:52;2.77;;;2.27;;
13461;SDS011;6803;45.264;5.468;2023-05-07T12:30:23;4.03;;;2.43;;
13461;SDS011;6803;45.264;5.468;2023-05-07T12:32:53;5.10;;;2.60;;
13461;SDS011;6803;45.264;5.468;2023-05-07T12:35:28;2.83;;;2.13;;
13461;SDS011;6803;45.264;5.468;2023-05-07T12:37:59;4.43;;;2.20;;
13461;SDS011;6803;45.264;5.468;2023-05-07T12:40:37;4.00;;;2.40;;
13461;SDS011;6803;45.264;5.468;2023-05-07T12:43:15;2.77;;;1.90;;
13461;SDS011;6803;45.264;5.468;2023-05-07T12:45:47;1.57;;;1.47;;
13461;SDS011;6803;45.264;5.468;2023-05-07T12:48:20;1.50;;;1.40;;
13461;SDS011;6803;45.264;5.468;2023-05-07T12:50:52;2.27;;;1.60;;
13461;SDS011;6803;45.264;5.468;2023-05-07T12:53:24;3.13;;;1.50;;
13461;SDS011;6803;45.264;5.468;2023-05-07T12:55:57;1.93;;;1.70;;
13461;SDS011;6803;45.264;5.468;2023-05-07T12:58:29;2.43;;;2.23;;
13461;SDS011;6803;45.264;5.468;2023-05-07T13:01:03;5.50;;;3.10;;
13461;SDS011;6803;45.264;5.468;2023-05-07T13:03:35;5.00;;;2.70;;
13461;SDS011;6803;45.264;5.468;2023-05-07T13:06:08;4.43;;;2.97;;
13461;SDS011;6803;45.264;5.468;2023-05-07T13:08:41;4.17;;;2.80;;
13461;SDS011;6803;45.264;5.468;2023-05-07T13:11:12;8.23;;;2.93;;
13461;SDS011;6803;45.264;5.468;2023-05-07T13:13:43;3.67;;;3.27;;
13461;SDS011;6803;45.264;5.468;2023-05-07T13:16:14;4.93;;;3.13;;
13461;SDS011;6803;45.264;5.468;2023-05-07T13:18:46;3.63;;;3.03;;
13461;SDS011;6803;45.264;5.468;2023-05-07T13:21:17;4.67;;;3.27;;
13461;SDS011;6803;45.264;5.468;2023-05-07T13:23:47;5.37;;;3.23;;
13461;SDS011;6803;45.264;5.468;2023-05-07T13:26:18;4.97;;;3.70;;
13461;SDS011;6803;45.264;5.468;2023-05-07T13:28:51;8.10;;;4.60;;
13461;SDS011;6803;45.264;5.468;2023-05-07T13:31:22;7.30;;;5.40;;
13461;SDS011;6803;45.264;5.468;2023-05-07T13:33:53;5.23;;;4.07;;
13461;SDS011;6803;45.264;5.468;2023-05-07T13:36:24;6.40;;;3.83;;
13461;SDS011;6803;45.264;5.468;2023-05-07T13:38:56;5.73;;;3.90;;
13461;SDS011;6803;45.264;5.468;2023-05-07T13:41:28;6.93;;;3.93;;
13461;SDS011;6803;45.264;5.468;2023-05-07T13:43:59;7.67;;;3.77;;
13461;SDS011;6803;45.264;5.468;2023-05-07T13:46:29;4.80;;;3.60;;
13461;SDS011;6803;45.264;5.468;2023-05-07T13:49:00;4.63;;;3.50;;
13461;SDS011;6803;45.264;5.468;2023-05-07T13:51:31;4.17;;;3.40;;
13461;SDS011;6803;45.264;5.468;2023-05-07T13:54:02;4.60;;;3.10;;
13461;SDS011;6803;45.264;5.468;2023-05-07T13:56:33;4.70;;;3.33;;
13461;SDS011;6803;45.264;5.468;2023-05-07T13:59:04;4.97;;;2.80;;
13461;SDS011;6803;45.264;5.468;2023-05-07T14:01:35;3.40;;;2.93;;
13461;SDS011;6803;45.264;5.468;2023-05-07T14:04:05;4.77;;;3.00;;
13461;SDS011;6803;45.264;5.468;2023-05-07T14:06:36;4.03;;;3.37;;
13461;SDS011;6803;45.264;5.468;2023-05-07T14:09:07;3.73;;;3.07;;
13461;SDS011;6803;45.264;5.468;2023-05-07T14:11:39;4.60;;;3.27;;
13461;SDS011;6803;45.264;5.468;2023-05-07T14:14:10;4.87;;;3.57;;
13461;SDS011;6803;45.264;5.468;2023-05-07T14:16:40;4.00;;;3.27;;
13461;SDS011;6803;45.264;5.468;2023-05-07T14:19:11;3.90;;;3.47;;
13461;SDS011;6803;45.264;5.468;2023-05-07T14:21:42;4.17;;;3.27;;
13461;SDS011;6803;45.264;5.468;2023-05-07T14:24:13;3.17;;;2.87;;
13461;SDS011;6803;45.264;5.468;2023-05-07T14:26:45;3.83;;;3.00;;
13461;SDS011;6803;45.264;5.468;2023-05-07T14:29:16;3.40;;;2.80;;
13461;SDS011;6803;45.264;5.468;2023-05-07T14:31:49;3.63;;;2.60;;
13461;SDS011;6803;45.264;5.468;2023-05-07T14:34:19;2.70;;;2.50;;
13461;SDS011;6803;45.264;5.468;2023-05-07T14:36:50;4.20;;;2.67;;
13461;SDS011;6803;45.264;5.468;2023-05-07T14:39:21;4.20;;;2.63;;
13461;SDS011;6803;45.264;5.468;2023-05-07T14:41:52;3.27;;;2.97;;
13461;SDS011;6803;45.264;5.468;2023-05-07T14:44:24;4.90;;;2.70;;
13461;SDS011;6803;45.264;5.468;2023-05-07T14:46:57;3.87;;;2.50;;
13461;SDS011;6803;45.264;5.468;2023-05-07T14:49:29;4.30;;;3.07;;
13461;SDS011;6803;45.264;5.468;2023-05-07T14:52:01;8.03;;;2.87;;
13461;SDS011;6803;45.264;5.468;2023-05-07T14:54:34;2.90;;;2.60;;
13461;SDS011;6803;45.264;5.468;2023-05-07T14:57:07;3.20;;;2.90;;
13461;SDS011;6803;45.264;5.468;2023-05-07T14:59:41;3.10;;;2.50;;
13461;SDS011;6803;45.264;5.468;2023-05-07T15:02:13;3.27;;;2.33;;
13461;SDS011;6803;45.264;5.468;2023-05-07T15:04:46;2.60;;;2.40;;
13461;SDS011;6803;45.264;5.468;2023-05-07T15:07:17;2.20;;;2.00;;
13461;SDS011;6803;45.264;5.468;2023-05-07T15:09:48;2.23;;;1.73;;
13461;SDS011;6803;45.264;5.468;2023-05-07T15:12:20;1.90;;;1.70;;
13461;SDS011;6803;45.264;5.468;2023-05-07T15:14:51;2.60;;;1.60;;
13461;SDS011;6803;45.264;5.468;2023-05-07T15:17:22;2.27;;;1.63;;
13461;SDS011;6803;45.264;5.468;2023-05-07T15:19:53;1.80;;;1.47;;
13461;SDS011;6803;45.264;5.468;2023-05-07T15:22:24;1.90;;;1.70;;
13461;SDS011;6803;45.264;5.468;2023-05-07T15:24:55;2.07;;;1.40;;
13461;SDS011;6803;45.264;5.468;2023-05-07T15:27:27;2.00;;;1.80;;
13461;SDS011;6803;45.264;5.468;2023-05-07T15:29:58;3.37;;;1.57;;